Time;durP1;ratioP1;P1;durP2;ratioP2;P2;SDS_P1;SDS_P2;PMS_P1;PMS_P2;Temp;Humidity;BMP_temperature;BMP_pressure;BME280_temperature;BME280_humidity;BME280_pressure;Samples;Min_cycle;Max_cycle;Signal;HPM_P1;HPM_P2
2024/02/06 00:01:33;;;;;;;4.47;2.80;;;9.30;99.90;;;;;;5071252;28;20188;-73
2024/02/06 00:03:58;;;;;;;7.70;3.67;;;9.40;99.90;;;;;;5072275;28;20273;-72
2024/02/06 00:06:24;;;;;;;6.57;2.87;;;9.40;99.90;;;;;;5072678;28;20190;-72
2024/02/06 00:08:49;;;;;;;7.23;4.47;;;9.40;99.90;;;;;;5072322;28;20162;-72
2024/02/06 00:11:16;;;;;;;5.13;3.20;;;9.40;99.90;;;;;;5071277;28;20173;-72
2024/02/06 00:13:41;;;;;;;5.90;2.63;;;9.40;99.90;;;;;;5072454;28;20166;-72
2024/02/06 00:16:14;;;;;;;6.83;2.50;;;9.40;99.90;;;;;;5072420;28;20427;-72
2024/02/06 00:18:40;;;;;;;7.50;2.40;;;9.40;99.90;;;;;;5071734;28;20166;-72
2024/02/06 00:21:06;;;;;;;3.50;2.50;;;9.40;99.90;;;;;;5071820;28;20400;-73
2024/02/06 00:23:31;;;;;;;7.33;3.03;;;9.40;99.90;;;;;;5071513;28;20834;-73
2024/02/06 00:25:57;;;;;;;3.90;2.57;;;9.40;99.90;;;;;;5071197;28;20190;-72
2024/02/06 00:28:24;;;;;;;4.90;2.90;;;9.40;99.90;;;;;;5071714;28;20653;-73
2024/02/06 00:30:50;;;;;;;4.00;3.13;;;9.40;99.90;;;;;;5071012;28;20686;-73
2024/02/06 00:33:16;;;;;;;7.40;3.20;;;9.40;99.90;;;;;;5073165;28;20412;-72
2024/02/06 00:35:41;;;;;;;4.53;3.03;;;9.50;99.90;;;;;;5076121;28;20190;-72
2024/02/06 00:38:07;;;;;;;5.33;2.87;;;9.50;99.90;;;;;;5074640;28;20235;-73
2024/02/06 00:40:33;;;;;;;5.40;2.40;;;9.50;99.90;;;;;;5076212;28;20189;-72
2024/02/06 00:42:59;;;;;;;3.83;2.70;;;9.50;99.90;;;;;;5074595;28;20440;-72
2024/02/06 00:45:24;;;;;;;4.63;2.30;;;9.60;99.90;;;;;;5075811;28;20564;-73
2024/02/06 00:47:51;;;;;;;5.43;2.90;;;9.60;99.90;;;;;;5075704;28;20232;-73
2024/02/06 00:50:17;;;;;;;4.73;2.80;;;9.60;99.90;;;;;;5075969;28;20669;-72
2024/02/06 00:52:43;;;;;;;5.67;2.23;;;9.60;99.90;;;;;;5075227;28;20520;-72
2024/02/06 00:55:08;;;;;;;4.07;2.53;;;9.60;99.90;;;;;;5075051;28;20431;-72
2024/02/06 00:57:34;;;;;;;3.53;2.63;;;9.70;99.90;;;;;;5075151;28;20253;-72
2024/02/06 00:59:59;;;;;;;7.30;3.20;;;9.60;99.90;;;;;;5074678;28;20182;-72
2024/02/06 01:02:25;;;;;;;3.93;2.43;;;9.60;99.90;;;;;;5075019;28;20167;-72
2024/02/06 01:04:51;;;;;;;4.40;2.67;;;9.70;99.90;;;;;;5074904;28;20197;-72
2024/02/06 01:07:18;;;;;;;7.70;2.60;;;9.70;99.90;;;;;;5075156;28;20659;-72
2024/02/06 01:09:44;;;;;;;10.83;3.30;;;9.70;99.90;;;;;;5074835;28;20779;-72
2024/02/06 01:12:10;;;;;;;5.20;2.57;;;9.80;99.90;;;;;;5074903;28;20408;-72
2024/02/06 01:14:36;;;;;;;8.27;2.50;;;9.80;99.90;;;;;;5074959;28;20412;-72
2024/02/06 01:17:02;;;;;;;9.73;2.43;;;9.80;99.90;;;;;;5073755;28;20218;-72
2024/02/06 01:19:28;;;;;;;7.83;3.00;;;9.80;99.90;;;;;;5074548;28;20408;-72
2024/02/06 01:21:53;;;;;;;5.90;3.03;;;9.80;99.90;;;;;;5073473;28;20416;-72
2024/02/06 01:24:19;;;;;;;5.70;2.60;;;9.80;99.90;;;;;;5074631;28;20194;-73
2024/02/06 01:26:44;;;;;;;6.40;2.33;;;9.80;99.90;;;;;;5074347;28;20202;-72
2024/02/06 01:29:10;;;;;;;4.50;2.40;;;9.80;99.90;;;;;;5074478;28;20586;-72
2024/02/06 01:31:35;;;;;;;3.07;2.40;;;9.80;99.90;;;;;;5074452;28;20170;-72
2024/02/06 01:34:01;;;;;;;6.63;2.77;;;9.80;99.90;;;;;;5073427;28;20178;-72
2024/02/06 01:36:27;;;;;;;4.20;3.00;;;9.80;99.90;;;;;;5074283;28;20193;-73
2024/02/06 01:38:52;;;;;;;6.57;2.20;;;9.80;99.90;;;;;;5074244;28;20170;-72
2024/02/06 01:41:18;;;;;;;4.20;2.70;;;9.70;99.90;;;;;;5074372;28;20182;-72
2024/02/06 01:43:43;;;;;;;2.50;2.03;;;9.80;99.90;;;;;;5074418;28;20177;-72
2024/02/06 01:46:10;;;;;;;5.10;2.47;;;9.80;99.90;;;;;;5072583;28;20653;-72
2024/02/06 01:48:36;;;;;;;4.00;2.13;;;9.80;99.90;;;;;;5074101;28;20221;-72
2024/02/06 01:51:02;;;;;;;4.73;3.30;;;9.80;99.90;;;;;;5074310;28;20413;-72
2024/02/06 01:53:28;;;;;;;5.47;2.73;;;9.80;99.90;;;;;;5074441;28;20427;-72
2024/02/06 01:55:54;;;;;;;6.00;3.20;;;9.80;99.90;;;;;;5074461;28;20424;-72
2024/02/06 01:58:20;;;;;;;3.73;2.77;;;9.80;99.90;;;;;;5074201;28;20171;-73
2024/02/06 02:00:46;;;;;;;5.23;2.90;;;9.80;99.90;;;;;;5074372;28;20170;-72
2024/02/06 02:03:13;;;;;;;9.50;3.50;;;9.80;99.90;;;;;;5074102;28;20499;-73
2024/02/06 02:05:40;;;;;;;8.33;2.57;;;9.80;99.90;;;;;;5072877;28;20907;-72
2024/02/06 02:08:06;;;;;;;5.87;2.80;;;9.80;99.90;;;;;;5072608;28;20408;-73
2024/02/06 02:10:32;;;;;;;3.03;2.60;;;9.70;99.90;;;;;;5074212;28;20443;-72
2024/02/06 02:12:57;;;;;;;4.50;2.70;;;9.80;99.90;;;;;;5074205;28;20451;-72
2024/02/06 02:15:23;;;;;;;7.10;2.73;;;9.80;99.90;;;;;;5074123;28;20289;-73
2024/02/06 02:17:50;;;;;;;4.67;3.33;;;9.70;99.90;;;;;;5073840;28;20185;-72
2024/02/06 02:20:16;;;;;;;5.47;3.00;;;9.70;99.90;;;;;;5072865;28;20170;-72
2024/02/06 02:22:42;;;;;;;8.50;2.33;;;9.70;99.90;;;;;;5074067;28;20415;-73
2024/02/06 02:25:08;;;;;;;6.67;2.67;;;9.70;99.90;;;;;;5072418;28;20464;-72
2024/02/06 02:27:34;;;;;;;3.80;3.20;;;9.70;99.90;;;;;;5073711;28;20163;-72
2024/02/06 02:30:00;;;;;;;5.73;2.80;;;9.70;99.90;;;;;;5073843;28;20644;-73
2024/02/06 02:32:27;;;;;;;7.00;2.80;;;9.70;99.90;;;;;;5073853;28;20454;-73
2024/02/06 02:34:53;;;;;;;2.30;2.10;;;9.80;99.90;;;;;;5073752;28;20495;-73
2024/02/06 02:37:18;;;;;;;4.23;2.20;;;9.80;99.90;;;;;;5073550;28;20917;-72
2024/02/06 02:39:44;;;;;;;4.23;2.50;;;9.80;99.90;;;;;;5073436;28;20172;-72
2024/02/06 02:42:09;;;;;;;4.83;2.50;;;9.80;99.90;;;;;;5073513;28;20197;-72
2024/02/06 02:44:35;;;;;;;4.27;2.10;;;9.80;99.90;;;;;;5073528;28;20225;-72
2024/02/06 02:47:00;;;;;;;7.43;3.10;;;9.80;99.90;;;;;;5073469;28;20186;-72
2024/02/06 02:49:26;;;;;;;6.37;3.30;;;9.90;99.90;;;;;;5073263;28;20175;-72
2024/02/06 02:51:52;;;;;;;6.70;2.77;;;9.90;99.90;;;;;;5073514;28;20178;-72
2024/02/06 02:54:19;;;;;;;9.20;3.03;;;9.90;99.90;;;;;;5073580;28;20568;-72
2024/02/06 02:56:45;;;;;;;3.20;1.97;;;9.90;99.90;;;;;;5072427;28;20494;-72
2024/02/06 02:59:10;;;;;;;5.17;2.30;;;9.90;99.90;;;;;;5072859;28;20409;-72
2024/02/06 03:01:36;;;;;;;5.60;1.70;;;9.90;99.90;;;;;;5071500;28;20672;-73
2024/02/06 03:04:02;;;;;;;4.10;2.60;;;9.90;99.90;;;;;;5072987;28;20202;-73
2024/02/06 03:06:27;;;;;;;7.77;3.13;;;9.90;99.90;;;;;;5071801;28;20224;-73
2024/02/06 03:08:54;;;;;;;4.50;2.17;;;9.90;99.90;;;;;;5073149;28;20170;-72
2024/02/06 03:11:19;;;;;;;7.60;3.27;;;9.90;99.90;;;;;;5072898;28;20223;-72
2024/02/06 03:13:45;;;;;;;4.27;1.97;;;10.00;99.90;;;;;;5073103;28;20495;-72
2024/02/06 03:16:11;;;;;;;5.80;2.73;;;9.90;99.90;;;;;;5072749;28;20210;-72
2024/02/06 03:18:37;;;;;;;3.80;1.93;;;10.00;99.90;;;;;;5072622;28;20162;-73
2024/02/06 03:21:03;;;;;;;2.80;1.90;;;10.00;99.90;;;;;;5073051;28;20629;-72
2024/02/06 03:23:29;;;;;;;4.00;2.00;;;10.00;99.90;;;;;;5072686;28;20419;-73
2024/02/06 03:25:54;;;;;;;7.43;2.93;;;10.00;99.90;;;;;;5072483;28;20468;-72
2024/02/06 03:28:20;;;;;;;7.47;2.50;;;10.00;99.90;;;;;;5072555;28;20162;-72
2024/02/06 03:30:46;;;;;;;5.07;3.80;;;10.10;99.90;;;;;;5071408;28;20170;-72
2024/02/06 03:33:12;;;;;;;3.33;2.00;;;10.10;99.90;;;;;;5072852;28;20163;-72
2024/02/06 03:35:40;;;;;;;7.00;2.53;;;10.10;99.90;;;;;;5072875;28;20664;-73
2024/02/06 03:38:06;;;;;;;4.50;2.30;;;10.10;99.90;;;;;;5072539;28;20257;-72
2024/02/06 03:40:32;;;;;;;13.63;2.30;;;10.10;99.90;;;;;;5071385;28;20440;-73
2024/02/06 03:42:58;;;;;;;4.87;2.30;;;10.10;99.90;;;;;;5072822;28;20166;-73
2024/02/06 03:45:23;;;;;;;5.17;1.90;;;10.10;99.90;;;;;;5072169;28;20464;-72
2024/02/06 03:47:49;;;;;;;9.07;2.90;;;10.10;99.90;;;;;;5072319;28;20205;-72
2024/02/06 03:50:14;;;;;;;5.53;2.40;;;10.20;99.90;;;;;;5072277;28;20174;-73
2024/02/06 03:52:40;;;;;;;3.43;2.43;;;10.20;99.90;;;;;;5072190;28;20671;-72
2024/02/06 03:55:06;;;;;;;4.50;2.17;;;10.20;99.90;;;;;;5072211;28;20208;-72
2024/02/06 03:57:32;;;;;;;6.63;3.10;;;10.20;99.90;;;;;;5072371;28;20190;-72
2024/02/06 03:59:58;;;;;;;8.50;2.87;;;10.20;99.90;;;;;;5071963;28;20517;-72
2024/02/06 04:02:23;;;;;;;5.87;2.70;;;10.30;99.90;;;;;;5072227;28;20401;-72
2024/02/06 04:04:49;;;;;;;7.53;2.20;;;10.20;99.90;;;;;;5072121;28;20194;-72
2024/02/06 04:07:15;;;;;;;8.67;2.83;;;10.20;99.90;;;;;;5071922;28;20189;-72
2024/02/06 04:09:41;;;;;;;3.97;2.50;;;10.30;99.90;;;;;;5077461;28;20415;-72
2024/02/06 04:12:07;;;;;;;5.87;2.40;;;10.30;99.90;;;;;;5078776;28;20169;-73
2024/02/06 04:14:33;;;;;;;2.30;2.10;;;10.30;99.90;;;;;;5078826;28;20208;-73
2024/02/06 04:16:58;;;;;;;6.73;2.80;;;10.30;99.90;;;;;;5078733;28;20188;-73
2024/02/06 04:19:24;;;;;;;4.10;2.57;;;10.20;99.90;;;;;;5078428;28;20170;-72
2024/02/06 04:21:51;;;;;;;8.00;3.57;;;10.30;99.90;;;;;;5078767;28;20170;-73
2024/02/06 04:24:17;;;;;;;4.90;4.43;;;10.20;99.90;;;;;;5078360;28;20448;-72
2024/02/06 04:26:43;;;;;;;5.43;2.63;;;10.30;99.90;;;;;;5078323;28;20454;-72
2024/02/06 04:29:09;;;;;;;8.00;2.63;;;10.30;99.90;;;;;;5078332;28;20404;-72
2024/02/06 04:31:35;;;;;;;2.90;2.00;;;10.30;99.90;;;;;;5078629;28;20438;-72
2024/02/06 04:34:00;;;;;;;4.63;2.50;;;10.30;99.90;;;;;;5078586;28;20404;-72
2024/02/06 04:36:26;;;;;;;8.07;3.10;;;10.30;99.90;;;;;;5076979;28;20437;-72
2024/02/06 04:38:51;;;;;;;3.43;2.60;;;10.30;99.90;;;;;;5078283;28;20737;-73
2024/02/06 04:41:17;;;;;;;3.63;3.10;;;10.30;99.90;;;;;;5078392;28;20208;-72
2024/02/06 04:43:42;;;;;;;7.13;3.03;;;10.30;99.90;;;;;;5078240;28;20215;-72
2024/02/06 04:46:08;;;;;;;4.70;2.17;;;10.20;99.90;;;;;;5076980;28;20332;-72
2024/02/06 04:48:34;;;;;;;6.90;2.83;;;10.30;99.90;;;;;;5078183;28;20167;-72
2024/02/06 04:50:59;;;;;;;3.63;2.10;;;10.30;99.90;;;;;;5078354;28;20181;-73
2024/02/06 04:53:26;;;;;;;4.03;2.67;;;10.20;99.90;;;;;;5078262;28;20214;-72
2024/02/06 04:55:52;;;;;;;5.30;2.03;;;10.20;99.90;;;;;;5078314;28;20720;-72
2024/02/06 04:58:18;;;;;;;4.20;2.20;;;10.30;99.90;;;;;;5078282;28;20408;-72
2024/02/06 05:00:44;;;;;;;4.47;2.60;;;10.30;99.90;;;;;;5077009;28;20515;-72
2024/02/06 05:03:09;;;;;;;5.90;2.77;;;10.30;99.90;;;;;;5078202;28;20166;-72
2024/02/06 05:05:35;;;;;;;4.63;3.37;;;10.30;99.90;;;;;;5078084;28;20608;-72
2024/02/06 05:08:00;;;;;;;5.97;3.80;;;10.30;99.90;;;;;;5076794;28;20579;-72
2024/02/06 05:10:26;;;;;;;4.87;2.27;;;10.30;99.90;;;;;;5078248;28;20629;-73
2024/02/06 05:12:52;;;;;;;4.23;2.83;;;10.20;99.90;;;;;;5078285;28;20712;-72
2024/02/06 05:15:17;;;;;;;11.03;3.57;;;10.20;99.90;;;;;;5078045;28;20193;-72
2024/02/06 05:17:43;;;;;;;5.90;2.00;;;10.30;99.90;;;;;;5077625;28;20222;-72
2024/02/06 05:20:09;;;;;;;4.87;2.73;;;10.30;99.90;;;;;;5074670;28;20186;-72
2024/02/06 05:22:38;;;;;;;6.13;2.50;;;10.30;99.90;;;;;;5073564;28;20216;-72
2024/02/06 05:25:05;;;;;;;2.80;2.43;;;10.20;99.90;;;;;;5074878;28;20999;-72
2024/02/06 05:27:31;;;;;;;4.67;2.40;;;10.20;99.90;;;;;;5074914;28;20416;-73
2024/02/06 05:29:57;;;;;;;4.33;2.40;;;10.20;99.90;;;;;;5074544;28;20404;-73
2024/02/06 05:32:22;;;;;;;3.77;2.37;;;10.30;99.90;;;;;;5075023;28;20487;-72
2024/02/06 05:34:53;;;;;;;9.70;4.20;;;10.30;99.90;;;;;;5074618;28;20178;-73
2024/02/06 05:37:19;;;;;;;4.03;3.03;;;10.30;99.90;;;;;;5074968;28;20170;-73
2024/02/06 05:39:44;;;;;;;2.70;2.40;;;10.30;99.90;;;;;;5074558;28;20412;-72
2024/02/06 05:42:10;;;;;;;9.80;2.50;;;10.40;99.90;;;;;;5074723;28;20170;-73
2024/02/06 05:44:36;;;;;;;6.13;3.00;;;10.50;99.90;;;;;;5074489;28;20202;-73
2024/02/06 05:47:02;;;;;;;7.67;5.57;;;10.50;99.90;;;;;;5074725;28;20431;-73
2024/02/06 05:49:28;;;;;;;4.47;2.50;;;10.50;99.90;;;;;;5074258;28;20507;-73
2024/02/06 05:51:53;;;;;;;4.37;2.37;;;10.50;99.90;;;;;;5074130;28;20400;-73
2024/02/06 05:54:19;;;;;;;3.13;2.43;;;10.50;99.90;;;;;;5074156;28;20227;-73
2024/02/06 05:56:44;;;;;;;3.00;1.87;;;10.50;99.90;;;;;;5073954;28;20217;-73
2024/02/06 05:59:10;;;;;;;3.97;2.50;;;10.50;99.90;;;;;;5073810;28;20637;-74
2024/02/06 06:01:35;;;;;;;4.30;2.60;;;10.50;99.90;;;;;;5073938;28;20219;-72
2024/02/06 06:04:01;;;;;;;5.43;3.60;;;10.40;99.90;;;;;;5072455;28;20221;-73
2024/02/06 06:06:26;;;;;;;10.30;4.17;;;10.40;99.90;;;;;;5072718;28;20277;-72
2024/02/06 06:08:52;;;;;;;2.90;2.10;;;10.40;99.90;;;;;;5072202;28;20170;-72
2024/02/06 06:11:20;;;;;;;2.47;2.20;;;10.40;99.90;;;;;;5073874;28;20166;-73
2024/02/06 06:13:45;;;;;;;7.73;2.70;;;10.40;99.90;;;;;;5072491;28;20198;-72
2024/02/06 06:16:11;;;;;;;14.67;7.97;;;10.40;99.90;;;;;;5072376;28;20459;-72
2024/02/06 06:18:36;;;;;;;3.37;2.47;;;10.40;99.90;;;;;;5073590;28;20248;-72
2024/02/06 06:21:02;;;;;;;5.63;2.80;;;10.40;99.90;;;;;;5073709;28;20166;-72
2024/02/06 06:23:27;;;;;;;7.63;3.40;;;10.40;99.90;;;;;;5073425;28;20166;-73
2024/02/06 06:25:53;;;;;;;5.43;3.27;;;10.40;99.90;;;;;;5073481;28;20309;-72
2024/02/06 06:28:19;;;;;;;6.87;3.47;;;10.40;99.90;;;;;;5073309;28;20174;-72
2024/02/06 06:30:44;;;;;;;5.17;3.10;;;10.40;99.90;;;;;;5073507;28;20245;-72
2024/02/06 06:33:10;;;;;;;3.30;3.00;;;10.40;99.90;;;;;;5073403;28;20186;-73
2024/02/06 06:35:36;;;;;;;3.60;2.50;;;10.40;99.90;;;;;;5073509;28;20197;-72
2024/02/06 06:38:02;;;;;;;4.50;3.27;;;10.40;99.90;;;;;;5071724;28;20205;-72
2024/02/06 06:40:27;;;;;;;3.23;2.73;;;10.40;99.90;;;;;;5073378;28;20915;-72
2024/02/06 06:42:53;;;;;;;5.60;2.67;;;10.30;99.90;;;;;;5073176;28;20170;-72
2024/02/06 06:45:18;;;;;;;3.13;2.30;;;10.30;99.90;;;;;;5072958;28;20654;-73
2024/02/06 06:47:44;;;;;;;5.37;3.50;;;10.30;99.90;;;;;;5072825;28;20525;-72
2024/02/06 06:50:10;;;;;;;6.90;2.90;;;10.40;99.90;;;;;;5072954;28;20165;-72
2024/02/06 06:52:40;;;;;;;7.53;3.77;;;10.40;99.90;;;;;;5072814;28;20470;-72
2024/02/06 06:55:05;;;;;;;4.10;2.67;;;10.30;99.90;;;;;;5072905;28;20865;-72
2024/02/06 06:57:31;;;;;;;5.50;2.87;;;10.40;99.90;;;;;;5072897;28;20504;-72
2024/02/06 06:59:56;;;;;;;5.20;3.00;;;10.40;99.90;;;;;;5071480;28;20261;-72
2024/02/06 07:02:23;;;;;;;10.00;3.20;;;10.40;99.90;;;;;;5071143;28;20186;-72
2024/02/06 07:04:49;;;;;;;4.57;2.60;;;10.50;99.90;;;;;;5072514;28;20202;-72
2024/02/06 07:07:14;;;;;;;5.50;2.70;;;10.50;99.90;;;;;;5072569;28;20420;-73
2024/02/06 07:09:40;;;;;;;5.40;2.70;;;10.50;99.90;;;;;;5072449;28;20169;-72
2024/02/06 07:12:06;;;;;;;5.13;3.07;;;10.50;99.90;;;;;;5072795;28;20166;-72
2024/02/06 07:14:34;;;;;;;5.53;3.00;;;10.60;99.90;;;;;;5072568;28;20189;-73
2024/02/06 07:16:59;;;;;;;5.00;2.20;;;10.60;99.90;;;;;;5072365;28;20412;-72
2024/02/06 07:19:25;;;;;;;8.37;2.37;;;10.60;99.90;;;;;;5072304;28;20404;-73
2024/02/06 07:21:57;;;;;;;5.77;3.33;;;10.60;99.90;;;;;;5071152;28;20663;-72
2024/02/06 07:24:26;;;;;;;6.00;2.97;;;10.60;99.90;;;;;;5071101;28;20202;-72
2024/02/06 07:26:52;;;;;;;8.27;3.20;;;10.60;99.90;;;;;;5072344;28;20914;-72
2024/02/06 07:29:18;;;;;;;5.70;2.57;;;10.50;99.90;;;;;;5071988;28;20419;-72
2024/02/06 07:31:44;;;;;;;6.17;2.87;;;10.50;99.90;;;;;;5072126;28;20495;-72
2024/02/06 07:34:10;;;;;;;2.97;2.63;;;10.60;99.90;;;;;;5071119;28;20210;-72
2024/02/06 07:36:35;;;;;;;9.73;2.60;;;10.60;99.90;;;;;;5072025;28;20452;-72
2024/02/06 07:39:01;;;;;;;3.27;2.93;;;10.60;99.90;;;;;;5072074;28;20173;-72
2024/02/06 07:41:26;;;;;;;5.90;3.50;;;10.70;99.90;;;;;;5072210;28;20166;-72
2024/02/06 07:43:52;;;;;;;4.90;3.03;;;10.70;99.90;;;;;;5071571;28;20166;-72
2024/02/06 07:46:18;;;;;;;7.63;3.20;;;10.70;99.90;;;;;;5070727;28;20189;-72
2024/02/06 07:48:44;;;;;;;4.80;2.50;;;10.70;99.90;;;;;;5072093;28;20910;-72
2024/02/06 07:51:11;;;;;;;7.30;3.00;;;10.70;99.90;;;;;;5072001;28;20491;-72
2024/02/06 07:53:36;;;;;;;5.73;2.93;;;10.80;99.90;;;;;;5071890;28;20264;-72
2024/02/06 07:56:04;;;;;;;12.10;4.53;;;10.80;99.90;;;;;;5070932;28;21007;-73
2024/02/06 07:58:30;;;;;;;6.90;3.30;;;10.80;99.90;;;;;;5072041;28;20257;-72
2024/02/06 08:00:55;;;;;;;4.93;2.87;;;10.80;99.90;;;;;;5071952;28;20924;-72
2024/02/06 08:03:21;;;;;;;5.60;2.10;;;10.90;99.90;;;;;;5070432;28;20495;-73
2024/02/06 08:05:46;;;;;;;3.03;2.10;;;10.90;99.90;;;;;;5071716;28;20760;-72
2024/02/06 08:08:12;;;;;;;3.87;3.10;;;10.90;99.90;;;;;;5071468;28;20211;-72
2024/02/06 08:10:37;;;;;;;7.87;3.27;;;10.90;99.90;;;;;;5071740;28;20641;-72
2024/02/06 08:13:03;;;;;;;5.20;2.33;;;10.90;99.90;;;;;;5071795;28;20181;-72
2024/02/06 08:15:28;;;;;;;2.83;2.23;;;10.90;99.90;;;;;;5071788;28;20205;-72
2024/02/06 08:17:54;;;;;;;4.50;2.90;;;11.00;99.90;;;;;;5071206;28;20175;-72
2024/02/06 08:20:21;;;;;;;3.73;2.73;;;11.00;99.90;;;;;;5071329;28;20196;-67
2024/02/06 08:22:49;;;;;;;6.07;2.60;;;11.10;99.90;;;;;;5071422;28;20173;-67
2024/02/06 08:25:15;;;;;;;5.43;2.57;;;11.10;99.90;;;;;;5071298;28;20444;-67
2024/02/06 08:27:41;;;;;;;3.03;2.37;;;11.10;99.90;;;;;;5071282;28;20392;-67
2024/02/06 08:30:09;;;;;;;4.10;2.57;;;11.10;99.90;;;;;;5071373;28;20450;-67
2024/02/06 08:32:35;;;;;;;4.13;2.40;;;11.20;99.90;;;;;;5071455;28;20537;-67
2024/02/06 08:35:00;;;;;;;3.93;2.77;;;11.20;99.90;;;;;;5071380;28;20483;-67
2024/02/06 08:37:26;;;;;;;18.80;3.63;;;11.20;99.90;;;;;;5071353;28;20602;-67
2024/02/06 08:39:52;;;;;;;2.90;2.10;;;11.30;99.90;;;;;;5071157;28;20162;-67
2024/02/06 08:42:17;;;;;;;3.40;2.57;;;11.20;99.90;;;;;;5071260;28;20405;-66
2024/02/06 08:44:43;;;;;;;4.00;2.80;;;11.30;99.90;;;;;;5071227;28;20190;-66
2024/02/06 08:47:09;;;;;;;6.17;2.67;;;11.20;99.90;;;;;;5071158;28;20645;-66
2024/02/06 08:49:35;;;;;;;9.47;2.80;;;11.30;99.90;;;;;;5071150;28;20249;-66
2024/02/06 08:52:00;;;;;;;10.43;2.60;;;11.20;99.90;;;;;;5071098;28;20542;-66
2024/02/06 08:54:26;;;;;;;3.40;2.43;;;11.30;99.90;;;;;;5071231;28;20197;-66
2024/02/06 08:56:54;;;;;;;4.03;2.90;;;11.30;99.90;;;;;;5074426;28;20186;-66
2024/02/06 08:59:20;;;;;;;3.27;2.57;;;11.30;99.90;;;;;;5074526;28;20690;-66
2024/02/06 09:01:46;;;;;;;8.77;3.67;;;11.40;99.90;;;;;;5074886;28;20407;-66
2024/02/06 09:04:11;;;;;;;3.00;2.20;;;11.40;99.90;;;;;;5074769;28;20657;-67
2024/02/06 09:06:37;;;;;;;7.83;4.90;;;11.30;99.90;;;;;;5074368;28;20178;-67
2024/02/06 09:09:03;;;;;;;4.40;2.60;;;11.40;99.90;;;;;;5074373;28;20163;-67
2024/02/06 09:11:30;;;;;;;5.10;2.80;;;11.40;99.90;;;;;;5074365;28;20191;-67
2024/02/06 09:13:56;;;;;;;10.83;3.30;;;11.50;99.90;;;;;;5074435;28;20404;-67
2024/02/06 09:16:22;;;;;;;3.83;2.20;;;11.50;99.90;;;;;;5074544;28;20784;-67
2024/02/06 09:18:53;;;;;;;4.83;2.60;;;11.60;99.90;;;;;;5074284;28;20515;-67
2024/02/06 09:21:19;;;;;;;6.13;2.70;;;11.60;99.90;;;;;;5074455;28;20432;-67
2024/02/06 09:23:45;;;;;;;3.67;2.37;;;11.50;99.90;;;;;;5074389;28;21010;-67
2024/02/06 09:26:11;;;;;;;5.03;2.53;;;11.50;99.90;;;;;;5074177;28;20217;-67
2024/02/06 09:28:38;;;;;;;6.60;2.40;;;11.50;99.90;;;;;;5073974;28;20412;-67
2024/02/06 09:31:04;;;;;;;10.10;2.70;;;11.50;99.90;;;;;;5074333;28;20405;-67
2024/02/06 09:33:30;;;;;;;3.13;2.10;;;11.50;99.90;;;;;;5074184;28;20422;-67
2024/02/06 09:35:55;;;;;;;9.60;3.70;;;11.50;99.90;;;;;;5074140;28;20851;-67
2024/02/06 09:38:21;;;;;;;4.80;2.20;;;11.50;99.90;;;;;;5074116;28;20181;-67
2024/02/06 09:40:47;;;;;;;4.23;2.70;;;11.40;99.90;;;;;;5074161;28;20194;-67
2024/02/06 09:43:13;;;;;;;6.27;2.90;;;11.30;99.90;;;;;;5073907;28;20173;-67
2024/02/06 09:45:39;;;;;;;9.53;2.70;;;11.40;99.90;;;;;;5073813;28;20456;-67
2024/02/06 09:48:07;;;;;;;9.17;2.73;;;11.30;99.90;;;;;;5073675;28;20622;-67
2024/02/06 09:50:33;;;;;;;4.93;2.80;;;11.40;99.90;;;;;;5074020;28;20173;-67
2024/02/06 09:53:02;;;;;;;3.80;2.23;;;11.40;99.90;;;;;;5073787;28;20432;-67
2024/02/06 09:55:29;;;;;;;4.73;2.80;;;11.50;99.90;;;;;;5073745;28;20469;-67
2024/02/06 09:57:58;;;;;;;6.93;3.03;;;11.40;99.90;;;;;;5073845;28;20525;-67
2024/02/06 10:00:25;;;;;;;7.40;2.57;;;11.40;99.90;;;;;;5073732;28;20903;-67
2024/02/06 10:02:57;;;;;;;3.43;2.93;;;11.40;99.90;;;;;;5073857;28;20454;-66
2024/02/06 10:05:26;;;;;;;7.37;3.13;;;11.50;99.90;;;;;;5073621;28;20837;-67
2024/02/06 10:07:53;;;;;;;15.73;4.00;;;11.40;99.90;;;;;;5073013;28;20396;-67
2024/02/06 10:10:19;;;;;;;4.00;3.17;;;11.40;99.90;;;;;;5073660;28;20840;-66
2024/02/06 10:12:45;;;;;;;6.87;2.90;;;11.40;99.90;;;;;;5073517;28;20408;-67
2024/02/06 10:15:19;;;;;;;5.30;2.80;;;11.40;99.90;;;;;;5073531;28;20403;-66
2024/02/06 10:17:45;;;;;;;7.00;3.73;;;11.40;99.90;;;;;;5073297;28;20408;-67
2024/02/06 10:20:11;;;;;;;6.43;3.30;;;11.50;99.90;;;;;;5073555;28;20500;-67
2024/02/06 10:22:41;;;;;;;7.00;3.20;;;11.50;99.90;;;;;;5073283;28;20954;-67
2024/02/06 10:25:08;;;;;;;10.30;2.87;;;11.60;99.90;;;;;;5073221;28;20455;-67
2024/02/06 10:27:34;;;;;;;10.10;3.40;;;11.60;99.90;;;;;;5073320;28;20992;-67
2024/02/06 10:30:03;;;;;;;4.13;2.80;;;11.60;99.90;;;;;;5073002;28;20488;-67
2024/02/06 10:32:32;;;;;;;8.00;4.03;;;11.60;99.90;;;;;;5073146;28;20401;-66
2024/02/06 10:35:08;;;;;;;6.17;3.23;;;11.50;99.90;;;;;;5073041;28;20411;-67
2024/02/06 10:37:35;;;;;;;7.37;3.47;;;11.50;99.90;;;;;;5073051;28;20438;-66
2024/02/06 10:40:11;;;;;;;11.53;4.17;;;11.50;99.90;;;;;;5072894;28;20491;-67
2024/02/06 10:42:39;;;;;;;8.87;3.53;;;11.50;99.90;;;;;;5072988;28;20490;-66
2024/02/06 10:45:05;;;;;;;6.00;3.80;;;11.50;99.90;;;;;;5072847;28;20448;-67
2024/02/06 10:47:31;;;;;;;8.53;4.37;;;11.50;99.90;;;;;;5072892;28;20405;-67
2024/02/06 10:50:04;;;;;;;6.60;3.63;;;11.50;99.90;;;;;;5072564;28;20393;-67
2024/02/06 10:52:30;;;;;;;4.70;3.30;;;11.40;99.90;;;;;;5072575;28;20424;-67
2024/02/06 10:54:55;;;;;;;6.30;3.40;;;11.40;99.90;;;;;;5072714;28;20420;-67
2024/02/06 10:57:24;;;;;;;4.63;4.07;;;11.40;99.90;;;;;;5072731;28;20692;-67
2024/02/06 11:00:17;;;;;;;9.30;3.87;;;11.40;99.90;;;;;;5072411;28;20174;-67
2024/02/06 11:02:43;;;;;;;8.37;3.80;;;11.40;99.90;;;;;;5072652;28;20749;-67
2024/02/06 11:05:27;;;;;;;7.23;4.07;;;11.40;99.90;;;;;;5072323;28;20456;-67
2024/02/06 11:08:20;;;;;;;6.63;3.43;;;11.40;99.90;;;;;;5072255;28;20412;-67
2024/02/06 11:10:54;;;;;;;10.90;3.30;;;11.60;99.90;;;;;;5070482;28;20839;-66
2024/02/06 11:13:31;;;;;;;16.03;3.73;;;11.80;99.90;;;;;;5072402;28;20396;-67
2024/02/06 11:16:02;;;;;;;3.93;3.17;;;12.00;99.90;;;;;;5072284;28;20427;-67
2024/02/06 11:18:31;;;;;;;8.33;3.50;;;12.00;99.90;;;;;;5071331;28;20404;-67
2024/02/06 11:21:00;;;;;;;4.60;2.90;;;12.10;99.90;;;;;;5072241;28;20486;-67
2024/02/06 11:23:26;;;;;;;6.87;3.60;;;12.10;99.90;;;;;;5072131;28;20412;-67
2024/02/06 11:25:52;;;;;;;5.67;3.27;;;12.30;99.90;;;;;;5071980;28;20456;-67
2024/02/06 11:28:18;;;;;;;6.93;3.30;;;12.40;99.90;;;;;;5071900;28;20915;-67
2024/02/06 11:30:44;;;;;;;6.00;3.00;;;12.40;99.90;;;;;;5072097;28;20228;-67
2024/02/06 11:33:14;;;;;;;4.60;3.17;;;12.50;99.90;;;;;;5072066;28;20814;-67
2024/02/06 11:35:40;;;;;;;3.43;2.87;;;12.50;99.90;;;;;;5072498;28;20447;-67
2024/02/06 11:38:06;;;;;;;9.30;3.70;;;12.50;99.90;;;;;;5071902;28;20432;-67
2024/02/06 11:40:32;;;;;;;8.97;4.03;;;12.50;99.90;;;;;;5071978;28;20463;-67
2024/02/06 11:43:02;;;;;;;11.13;3.90;;;12.50;99.90;;;;;;5072024;28;20417;-67
2024/02/06 11:45:29;;;;;;;14.83;4.20;;;12.40;99.90;;;;;;5070615;28;21035;-67
2024/02/06 11:47:57;;;;;;;4.47;4.07;;;12.40;99.90;;;;;;5071619;28;20594;-67
2024/02/06 11:50:43;;;;;;;10.90;4.50;;;12.40;99.90;;;;;;5071951;28;20405;-67
2024/02/06 11:53:13;;;;;;;6.43;4.17;;;12.30;99.90;;;;;;5071777;28;20442;-67
2024/02/06 11:55:42;;;;;;;11.80;3.93;;;12.30;99.90;;;;;;5071763;28;20486;-67
2024/02/06 11:58:08;;;;;;;8.60;3.63;;;12.20;99.90;;;;;;5071546;28;20400;-67
2024/02/06 12:00:35;;;;;;;6.20;3.70;;;12.30;99.90;;;;;;5071731;28;20440;-67
2024/02/06 12:03:00;;;;;;;4.03;3.50;;;12.30;99.90;;;;;;5071741;28;20409;-67
2024/02/06 12:05:26;;;;;;;5.80;3.53;;;12.40;99.90;;;;;;5071527;28;20513;-67
2024/02/06 12:07:56;;;;;;;5.57;3.67;;;12.40;99.90;;;;;;5071805;28;20178;-67
2024/02/06 12:10:30;;;;;;;6.00;3.87;;;12.50;99.90;;;;;;5071779;28;20169;-67
2024/02/06 12:13:08;;;;;;;8.67;3.90;;;12.40;99.90;;;;;;5071642;28;20814;-67
2024/02/06 12:15:36;;;;;;;8.63;5.37;;;12.40;99.90;;;;;;5071733;28;20978;-67
2024/02/06 12:18:06;;;;;;;6.80;4.30;;;12.30;99.90;;;;;;5071497;28;20474;-67
2024/02/06 12:20:33;;;;;;;10.87;4.20;;;12.20;99.90;;;;;;5071655;28;20404;-67
2024/02/06 12:23:03;;;;;;;11.80;3.50;;;12.20;99.90;;;;;;5071636;28;20403;-67
2024/02/06 12:25:30;;;;;;;13.87;4.20;;;12.20;99.90;;;;;;5071910;28;21002;-67
2024/02/06 12:28:12;;;;;;;19.27;4.00;;;12.10;99.90;;;;;;5071401;28;20400;-67
2024/02/06 12:30:40;;;;;;;7.10;4.43;;;12.00;99.90;;;;;;5074685;28;20404;-67
2024/02/06 12:33:06;;;;;;;5.33;3.40;;;12.10;99.90;;;;;;5075482;28;20401;-67
2024/02/06 12:35:34;;;;;;;12.00;4.50;;;12.30;99.90;;;;;;5075441;28;20793;-67
2024/02/06 12:38:00;;;;;;;7.43;3.23;;;12.40;99.90;;;;;;5075206;28;20158;-67
2024/02/06 12:40:27;;;;;;;7.37;3.60;;;12.50;99.90;;;;;;5075445;28;20407;-67
2024/02/06 12:42:53;;;;;;;8.23;3.47;;;12.60;99.90;;;;;;5075378;28;20466;-67
2024/02/06 12:45:20;;;;;;;14.83;4.37;;;12.70;99.90;;;;;;5075196;28;20456;-67